Time;durP1;ratioP1;P1;durP2;ratioP2;P2;SDS_P1;SDS_P2;PMS_P1;PMS_P2;Temp;Humidity;BMP_temperature;BMP_pressure;BME280_temperature;BME280_humidity;BME280_pressure;Samples;Min_cycle;Max_cycle;Signal;HPM_P1;HPM_P2
2024/03/17 00:02:23;;;;;;;28.77;9.20;;;;;;;-0.09;59.52;100236.72;5063960;28;20509;-73
2024/03/17 00:04:52;;;;;;;19.70;8.52;;;;;;;-0.05;59.67;100228.38;5075886;28;20051;-76
2024/03/17 00:07:18;;;;;;;20.33;8.00;;;;;;;0.11;59.52;100260.59;5075736;28;20066;-78
2024/03/17 00:09:45;;;;;;;19.73;8.82;;;;;;;0.05;59.54;100239.00;5076843;28;20040;-77
2024/03/17 00:12:11;;;;;;;23.98;8.73;;;;;;;-0.12;59.35;100205.91;5076637;28;20135;-75
2024/03/17 00:14:39;;;;;;;23.50;8.35;;;;;;;-0.01;59.60;100237.06;5051782;28;20143;-75
2024/03/17 00:17:05;;;;;;;22.98;9.02;;;;;;;0.11;59.00;100252.03;5076644;28;21854;-75
2024/03/17 00:19:31;;;;;;;19.88;8.93;;;;;;;-0.04;59.15;100237.78;5062208;28;20071;-75
2024/03/17 00:21:58;;;;;;;21.98;8.15;;;;;;;0.15;59.04;100253.91;5063640;28;20064;-74
2024/03/17 00:24:24;;;;;;;22.58;9.43;;;;;;;-0.14;59.12;100215.22;5048599;28;20044;-75
2024/03/17 00:26:50;;;;;;;26.20;8.70;;;;;;;-0.19;59.29;100197.09;5080707;28;20036;-75
2024/03/17 00:29:16;;;;;;;22.55;8.70;;;;;;;-0.04;59.21;100214.75;5065916;28;20058;-72
2024/03/17 00:31:42;;;;;;;21.25;9.93;;;;;;;-0.27;59.60;100177.13;5079738;28;20498;-74
2024/03/17 00:34:09;;;;;;;23.55;9.57;;;;;;;-0.04;59.23;100206.22;5065168;28;20446;-73
2024/03/17 00:36:36;;;;;;;34.00;10.05;;;;;;;0.17;59.20;100239.47;5062987;28;20105;-72
2024/03/17 00:39:03;;;;;;;19.65;8.85;;;;;;;0.11;59.44;100239.25;5048643;28;20978;-75
2024/03/17 00:41:29;;;;;;;27.85;9.38;;;;;;;-0.01;59.21;100232.81;5064711;28;20040;-73
2024/03/17 00:43:56;;;;;;;24.27;9.20;;;;;;;-0.17;58.74;100212.53;5094736;28;20439;-75
2024/03/17 00:46:24;;;;;;;31.55;9.50;;;;;;;-0.12;59.15;100235.72;5079516;28;20074;-75
2024/03/17 00:48:50;;;;;;;27.90;9.70;;;;;;;-0.20;59.01;100225.19;5048443;28;20498;-72
2024/03/17 00:51:17;;;;;;;27.10;9.77;;;;;;;-0.14;59.62;100232.22;5079326;28;20046;-76
2024/03/17 00:53:43;;;;;;;25.40;9.57;;;;;;;-0.13;59.17;100218.63;5083247;28;20134;-75
2024/03/17 00:56:09;;;;;;;18.20;8.70;;;;;;;-0.23;59.37;100212.25;5069076;28;20130;-74
2024/03/17 00:58:35;;;;;;;20.90;8.60;;;;;;;-0.14;59.46;100230.56;5054650;28;20032;-76
2024/03/17 01:01:02;;;;;;;29.27;9.65;;;;;;;-0.36;59.59;100182.75;5063349;28;20499;-76
2024/03/17 01:03:28;;;;;;;27.08;9.27;;;;;;;-0.08;59.58;100238.47;5052666;28;20043;-75
2024/03/17 01:05:54;;;;;;;25.33;9.25;;;;;;;-0.16;59.47;100227.06;5077151;28;20055;-75
2024/03/17 01:08:21;;;;;;;23.40;9.40;;;;;;;-0.48;59.94;100178.88;5076946;28;20047;-75
2024/03/17 01:10:51;;;;;;;22.70;9.38;;;;;;;-0.38;59.69;100187.81;5069531;28;20040;-74
2024/03/17 01:13:17;;;;;;;30.05;9.30;;;;;;;-0.43;59.81;100170.50;5065408;28;20529;-76
2024/03/17 01:15:44;;;;;;;23.08;9.73;;;;;;;-0.12;59.97;100213.59;5077292;28;20040;-75
2024/03/17 01:18:10;;;;;;;19.60;9.57;;;;;;;-0.33;59.13;100190.56;5076669;28;20043;-75
2024/03/17 01:20:38;;;;;;;29.65;9.55;;;;;;;-0.36;59.51;100192.97;5080268;28;20045;-77
2024/03/17 01:23:05;;;;;;;24.80;9.98;;;;;;;-0.25;59.85;100196.88;5062905;28;20032;-76
2024/03/17 01:25:36;;;;;;;24.77;9.43;;;;;;;-0.37;59.53;100191.22;5054168;28;20036;-75
2024/03/17 01:28:02;;;;;;;28.25;10.70;;;;;;;-0.27;59.81;100218.94;5069558;28;20073;-74
2024/03/17 01:30:29;;;;;;;20.65;9.57;;;;;;;-0.60;59.86;100157.91;5064350;28;20047;-75
2024/03/17 01:32:55;;;;;;;33.03;10.05;;;;;;;-0.76;59.55;100146.16;5079400;28;20043;-74
2024/03/17 01:35:22;;;;;;;23.23;9.40;;;;;;;-0.39;59.66;100196.28;5066007;28;20079;-73
2024/03/17 01:37:48;;;;;;;27.50;9.80;;;;;;;-0.36;59.61;100209.22;5064050;28;20040;-74
2024/03/17 01:40:15;;;;;;;23.48;9.77;;;;;;;-0.48;59.95;100185.66;5054819;28;20040;-73
2024/03/17 01:42:41;;;;;;;37.30;10.45;;;;;;;-0.73;59.78;100141.16;5071551;28;21994;-72
2024/03/17 01:45:16;;;;;;;25.70;10.10;;;;;;;-0.26;59.71;100204.47;5080456;28;20040;-78
2024/03/17 01:47:43;;;;;;;27.05;9.35;;;;;;;-0.29;59.58;100204.31;5079095;28;20096;-76
2024/03/17 01:50:11;;;;;;;26.38;10.52;;;;;;;-0.36;59.82;100193.88;5077569;28;20048;-75
2024/03/17 01:52:37;;;;;;;28.27;9.98;;;;;;;-0.54;59.75;100149.59;5068696;28;20036;-74
2024/03/17 01:55:03;;;;;;;24.20;10.50;;;;;;;-0.32;60.15;100180.38;5079240;28;20040;-71
2024/03/17 01:57:34;;;;;;;24.27;10.35;;;;;;;-0.44;59.88;100172.19;5064741;28;20048;-79
2024/03/17 02:00:00;;;;;;;32.20;10.25;;;;;;;-0.27;59.61;100205.28;5080072;28;20068;-77
2024/03/17 02:02:31;;;;;;;43.47;10.98;;;;;;;-0.38;59.90;100180.13;5078493;28;20090;-78
2024/03/17 02:04:57;;;;;;;27.02;10.80;;;;;;;-0.51;60.32;100149.72;5063027;28;20040;-77
2024/03/17 02:07:24;;;;;;;33.20;10.95;;;;;;;-0.54;59.64;100147.03;5080709;28;20039;-78
2024/03/17 02:09:51;;;;;;;23.95;10.40;;;;;;;-0.56;59.98;100125.69;5082687;28;20039;-77
2024/03/17 02:12:17;;;;;;;22.08;10.45;;;;;;;-0.27;59.96;100178.03;5080401;28;20044;-77
2024/03/17 02:14:43;;;;;;;29.92;11.68;;;;;;;-0.27;59.62;100174.56;5078313;28;20064;-76
2024/03/17 02:17:09;;;;;;;28.45;10.88;;;;;;;-0.34;59.69;100173.47;5065350;28;20041;-76
2024/03/17 02:19:35;;;;;;;30.05;10.75;;;;;;;-0.26;59.87;100172.09;5068114;28;20033;-75
2024/03/17 02:22:01;;;;;;;25.65;11.23;;;;;;;-0.17;59.95;100187.81;5069812;28;20040;-77
2024/03/17 02:24:27;;;;;;;32.03;11.88;;;;;;;-0.54;60.26;100126.59;5084694;28;20478;-77
2024/03/17 02:26:54;;;;;;;25.05;10.95;;;;;;;-0.22;60.09;100173.94;5063795;28;20044;-76
2024/03/17 02:29:20;;;;;;;28.00;11.05;;;;;;;-0.24;60.01;100152.56;5064609;28;20059;-74
2024/03/17 02:31:48;;;;;;;29.17;11.35;;;;;;;-0.43;58.84;100139.81;5078774;28;20117;-74
2024/03/17 02:34:14;;;;;;;34.60;10.80;;;;;;;-0.34;60.00;100156.44;5077381;28;20063;-73
2024/03/17 02:36:40;;;;;;;31.70;11.90;;;;;;;-0.37;59.88;100169.09;5066084;28;20142;-73
2024/03/17 02:41:51;;;;;;;28.45;11.57;;;;;;;-0.69;60.03;100116.63;5097552;28;20093;-73
2024/03/17 02:44:17;;;;;;;33.53;11.98;;;;;;;-0.42;60.66;100154.34;5081659;28;20039;-73
2024/03/17 02:46:43;;;;;;;41.28;12.73;;;;;;;-0.35;59.85;100162.38;5068113;28;20050;-75
2024/03/17 02:49:13;;;;;;;28.23;10.75;;;;;;;-0.67;60.44;100104.78;5077799;28;20127;-74
2024/03/17 02:51:39;;;;;;;29.50;12.10;;;;;;;-0.39;59.78;100162.16;5080800;28;20417;-73
2024/03/17 02:54:06;;;;;;;27.33;12.02;;;;;;;-0.73;60.05;100100.28;5079857;28;20464;-74
2024/03/17 02:56:32;;;;;;;33.78;11.93;;;;;;;-0.51;59.78;100157.41;5074219;28;20066;-77
2024/03/17 02:58:58;;;;;;;25.48;11.45;;;;;;;-0.62;59.69;100160.41;5068442;28;20035;-73
2024/03/17 03:01:24;;;;;;;30.90;11.88;;;;;;;-0.78;60.44;100140.97;5078054;28;20089;-73
2024/03/17 03:03:50;;;;;;;33.42;11.75;;;;;;;-0.76;59.72;100139.38;5065717;28;20422;-72
2024/03/17 03:06:19;;;;;;;31.27;12.43;;;;;;;-0.82;60.77;100134.00;5067300;28;20142;-75
2024/03/17 03:08:48;;;;;;;23.55;11.57;;;;;;;-0.61;60.15;100151.03;5083493;28;20141;-78
2024/03/17 03:11:16;;;;;;;29.48;12.35;;;;;;;-0.52;60.55;100155.66;5056823;28;20122;-78
2024/03/17 03:13:43;;;;;;;26.58;11.98;;;;;;;-0.67;60.10;100127.78;5065612;28;20054;-77
2024/03/17 03:16:14;;;;;;;29.45;12.15;;;;;;;-0.76;60.57;100112.91;5057668;28;20035;-77
2024/03/17 03:18:41;;;;;;;31.48;13.27;;;;;;;-0.87;60.27;100079.25;5052993;28;20071;-76
2024/03/17 03:21:07;;;;;;;32.25;12.32;;;;;;;-0.54;60.69;100129.16;5067202;28;20395;-76
2024/03/17 03:23:33;;;;;;;25.73;12.77;;;;;;;-0.49;60.17;100131.09;5081994;28;20039;-75
2024/03/17 03:26:04;;;;;;;31.17;13.80;;;;;;;-0.52;60.34;100130.97;5066808;28;20116;-76
2024/03/17 03:28:33;;;;;;;31.13;12.15;;;;;;;-0.42;59.97;100139.00;5095771;28;20081;-75
2024/03/17 03:31:00;;;;;;;31.02;13.02;;;;;;;-0.53;59.81;100136.00;5066399;28;20096;-76
2024/03/17 03:33:27;;;;;;;27.45;12.65;;;;;;;-0.63;60.28;100116.88;5052418;28;20494;-75
2024/03/17 03:35:54;;;;;;;29.38;11.63;;;;;;;-0.68;59.92;100110.72;5079225;28;20043;-75
2024/03/17 03:38:20;;;;;;;30.23;11.70;;;;;;;-0.59;60.67;100123.84;5066249;28;20048;-75
2024/03/17 03:40:47;;;;;;;30.30;12.82;;;;;;;-0.70;59.93;100108.06;5077656;28;20044;-73
2024/03/17 03:43:17;;;;;;;32.95;12.07;;;;;;;-0.69;59.60;100137.94;5078011;28;20512;-74
2024/03/17 03:45:44;;;;;;;35.22;13.30;;;;;;;-1.12;59.49;100100.34;5095035;28;20036;-78
2024/03/17 03:48:10;;;;;;;31.20;12.95;;;;;;;-1.03;60.65;100121.19;5065598;28;20520;-76
2024/03/17 03:50:38;;;;;;;34.30;12.55;;;;;;;-1.11;60.96;100090.22;5065511;28;20039;-78
2024/03/17 03:53:08;;;;;;;33.42;14.40;;;;;;;-0.63;61.17;100130.53;5064835;28;20555;-76
2024/03/17 03:55:34;;;;;;;45.00;14.05;;;;;;;-0.71;60.64;100116.53;5103335;28;20072;-75
2024/03/17 03:58:00;;;;;;;39.72;14.90;;;;;;;-0.56;61.10;100118.88;5083240;28;20051;-75
2024/03/17 04:00:29;;;;;;;35.67;14.45;;;;;;;-0.48;60.64;100124.28;5082465;28;20166;-74
2024/03/17 04:02:55;;;;;;;33.97;14.27;;;;;;;-0.47;60.11;100103.03;5067151;28;20089;-72
2024/03/17 04:05:22;;;;;;;30.42;14.95;;;;;;;-0.23;60.86;100125.28;5081062;28;20043;-73
2024/03/17 04:07:48;;;;;;;38.25;14.70;;;;;;;-0.28;60.65;100108.88;5070612;28;20046;-73
2024/03/17 04:10:18;;;;;;;39.00;13.93;;;;;;;-0.13;60.47;100108.63;5084736;28;20051;-74
2024/03/17 04:12:44;;;;;;;30.85;13.10;;;;;;;-0.09;60.51;100120.72;5068232;28;20044;-74
2024/03/17 04:15:10;;;;;;;35.17;13.90;;;;;;;0.00;60.02;100115.97;5101556;28;20387;-73
2024/03/17 04:17:37;;;;;;;34.33;13.52;;;;;;;0.01;59.88;100116.84;5083194;28;20500;-76
2024/03/17 04:20:07;;;;;;;36.72;13.52;;;;;;;0.14;60.09;100112.25;5071207;28;20126;-75
2024/03/17 04:22:34;;;;;;;31.65;14.55;;;;;;;0.39;59.68;100127.66;5083084;28;20047;-74
2024/03/17 04:25:01;;;;;;;37.85;13.77;;;;;;;0.56;60.22;100129.16;5083655;28;20035;-77
2024/03/17 04:27:29;;;;;;;32.22;13.07;;;;;;;0.68;59.47;100120.19;5083924;28;20044;-73
2024/03/17 04:30:00;;;;;;;35.72;13.43;;;;;;;0.85;59.62;100118.25;5065581;28;20040;-72
2024/03/17 04:32:27;;;;;;;27.52;12.45;;;;;;;0.96;59.45;100116.06;5083221;28;20051;-73
2024/03/17 04:34:53;;;;;;;35.92;13.20;;;;;;;1.27;59.47;100123.13;5079686;28;20042;-73
2024/03/17 04:37:19;;;;;;;30.73;12.38;;;;;;;1.47;59.05;100105.81;5081672;28;20070;-73
2024/03/17 04:39:46;;;;;;;30.00;13.38;;;;;;;1.84;59.11;100118.09;5083434;28;20084;-77
2024/03/17 04:42:14;;;;;;;39.63;12.82;;;;;;;1.96;58.80;100092.81;5059479;28;20044;-77
2024/03/17 04:44:41;;;;;;;28.75;12.05;;;;;;;2.33;57.77;100124.72;5084432;28;20039;-75
2024/03/17 04:47:07;;;;;;;30.45;13.27;;;;;;;2.15;57.15;100066.00;5083036;28;20040;-76
2024/03/17 04:49:38;;;;;;;36.28;12.63;;;;;;;2.45;57.36;100077.13;5098018;28;20040;-74
2024/03/17 04:52:05;;;;;;;34.92;12.75;;;;;;;2.72;56.94;100066.72;5104370;28;20130;-75
2024/03/17 04:54:34;;;;;;;37.50;12.95;;;;;;;3.55;56.77;100114.31;5058632;28;20258;-74
2024/03/17 04:57:02;;;;;;;30.95;12.27;;;;;;;4.22;56.17;100088.38;5056709;28;20088;-74
2024/03/17 04:59:28;;;;;;;28.45;12.10;;;;;;;5.10;55.57;100088.34;5087970;28;20028;-75
2024/03/17 05:01:57;;;;;;;37.03;12.20;;;;;;;5.82;55.10;100093.00;5083052;28;20048;-74
2024/03/17 05:04:23;;;;;;;29.02;11.15;;;;;;;6.16;53.25;100055.63;5068916;28;20505;-71
2024/03/17 05:06:53;;;;;;;37.13;12.10;;;;;;;6.83;52.52;100084.84;5082347;28;20044;-71
2024/03/17 05:09:23;;;;;;;35.97;11.32;;;;;;;7.55;51.01;100107.09;5081570;28;20036;-76
2024/03/17 05:11:52;;;;;;;31.55;13.18;;;;;;;7.90;50.59;100059.00;5080843;28;20046;-65
2024/03/17 05:14:19;;;;;;;28.70;12.15;;;;;;;8.73;49.19;100074.13;5066235;28;20032;-69
2024/03/17 05:16:47;;;;;;;32.60;12.45;;;;;;;9.50;48.51;100081.16;5082289;28;20047;-64
2024/03/17 05:19:13;;;;;;;34.50;12.10;;;;;;;10.23;46.61;100097.53;5083992;28;20032;-64
2024/03/17 05:21:39;;;;;;;33.28;13.38;;;;;;;10.64;45.42;100076.59;5076461;28;20418;-62
2024/03/17 05:24:06;;;;;;;26.27;11.68;;;;;;;11.22;44.68;100077.13;5078152;28;20386;-62
2024/03/17 05:26:32;;;;;;;37.08;12.20;;;;;;;11.79;43.51;100081.88;5096126;28;20520;-63
2024/03/17 05:28:57;;;;;;;25.58;10.27;;;;;;;12.29;42.53;100065.75;5078401;28;20028;-61
2024/03/17 05:31:24;;;;;;;28.15;11.85;;;;;;;12.96;41.20;100089.25;5065558;28;20521;-65
2024/03/17 05:33:49;;;;;;;35.85;11.10;;;;;;;13.39;40.39;100079.88;5067201;28;20510;-63
2024/03/17 05:36:20;;;;;;;28.52;11.77;;;;;;;13.94;39.11;100079.88;5067071;28;20097;-63
2024/03/17 05:38:46;;;;;;;31.40;11.38;;;;;;;14.45;38.55;100071.03;5027833;28;20529;-63
2024/03/17 05:41:14;;;;;;;22.75;11.18;;;;;;;14.57;37.16;100069.91;5021762;28;20048;-67
2024/03/17 05:43:42;;;;;;;24.70;11.80;;;;;;;14.85;36.24;100061.50;5054049;28;20037;-68
2024/03/17 05:46:10;;;;;;;24.40;11.02;;;;;;;15.07;36.02;100067.09;5052126;28;20049;-66
2024/03/17 05:48:39;;;;;;;25.65;11.30;;;;;;;15.47;35.00;100079.25;5068622;28;20398;-66
2024/03/17 05:51:09;;;;;;;27.40;11.27;;;;;;;15.49;33.27;100058.25;5048773;28;20075;-68
2024/03/17 05:53:38;;;;;;;26.00;11.90;;;;;;;15.88;34.38;100068.63;5039997;28;20040;-65
2024/03/17 05:56:04;;;;;;;35.20;12.63;;;;;;;16.36;33.33;100079.59;5058200;28;20040;-67
2024/03/17 05:58:30;;;;;;;36.72;12.75;;;;;;;16.68;32.58;100073.41;5046930;28;20039;-65
2024/03/17 06:00:58;;;;;;;34.58;11.77;;;;;;;16.73;31.75;100064.53;5055683;28;20548;-65
2024/03/17 06:03:24;;;;;;;32.60;11.60;;;;;;;17.13;32.04;100072.03;5041635;28;20044;-64
2024/03/17 06:05:50;;;;;;;26.05;10.65;;;;;;;17.86;30.96;100061.78;5052168;28;20492;-66
2024/03/17 06:08:17;;;;;;;30.35;11.30;;;;;;;18.29;30.62;100058.53;5066420;28;20037;-65
2024/03/17 06:10:48;;;;;;;29.20;11.48;;;;;;;19.14;30.00;100072.91;5051006;28;20113;-66
2024/03/17 06:13:16;;;;;;;29.63;11.38;;;;;;;19.22;29.30;100063.75;5056902;28;20041;-67
2024/03/17 06:15:47;;;;;;;23.85;10.68;;;;;;;19.54;28.00;100061.56;5053561;28;20044;-64
2024/03/17 06:18:14;;;;;;;30.92;12.07;;;;;;;19.71;28.12;100055.56;5055961;28;20036;-67
2024/03/17 06:20:42;;;;;;;29.85;11.40;;;;;;;20.38;27.87;100057.97;5062317;28;20086;-66
2024/03/17 06:23:08;;;;;;;35.15;10.95;;;;;;;20.58;27.69;100058.84;5056444;28;20033;-64
2024/03/17 06:25:46;;;;;;;36.10;12.05;;;;;;;21.10;26.43;100052.88;5070613;28;20519;-67
2024/03/17 06:28:16;;;;;;;31.45;11.27;;;;;;;21.44;26.61;100058.31;5070632;28;20090;-65
2024/03/17 06:30:46;;;;;;;31.23;11.07;;;;;;;20.95;26.01;100048.34;5055116;28;20429;-63
2024/03/17 06:33:14;;;;;;;32.70;11.80;;;;;;;20.02;26.26;100051.63;5070208;28;20043;-65
2024/03/17 06:35:40;;;;;;;31.83;11.63;;;;;;;19.06;26.64;100067.94;5041250;28;20041;-64
2024/03/17 06:38:09;;;;;;;30.88;12.07;;;;;;;18.11;27.04;100039.00;5054876;28;20049;-65
2024/03/17 06:40:39;;;;;;;32.22;11.48;;;;;;;17.72;27.36;100050.84;5045719;28;20048;-64
2024/03/17 06:43:06;;;;;;;37.90;12.48;;;;;;;17.67;27.21;100048.38;5053250;28;20056;-64
2024/03/17 06:45:32;;;;;;;35.35;12.50;;;;;;;17.19;27.55;100046.47;5050609;28;20055;-66
2024/03/17 06:47:58;;;;;;;35.05;12.23;;;;;;;17.94;27.99;100058.88;5054771;28;20036;-63
2024/03/17 06:50:24;;;;;;;31.17;11.45;;;;;;;18.74;27.26;100041.91;5057287;28;20041;-62
2024/03/17 06:52:52;;;;;;;29.02;11.80;;;;;;;18.99;27.00;100046.22;5052546;28;20051;-66
2024/03/17 06:55:21;;;;;;;32.47;11.25;;;;;;;18.52;26.75;100034.84;5055004;28;20044;-65
2024/03/17 06:57:47;;;;;;;40.22;11.73;;;;;;;17.91;26.52;100048.44;5038878;28;20489;-65
2024/03/17 07:00:16;;;;;;;34.72;11.48;;;;;;;17.02;26.78;100058.41;5054125;28;20043;-64
2024/03/17 07:02:44;;;;;;;34.03;10.75;;;;;;;16.74;28.17;100048.69;5053496;28;20048;-63
2024/03/17 07:05:14;;;;;;;33.90;11.85;;;;;;;17.09;28.24;100032.78;5052040;28;20101;-65
2024/03/17 07:07:44;;;;;;;38.15;11.82;;;;;;;17.82;28.32;100048.75;5036935;28;20044;-69
2024/03/17 07:10:15;;;;;;;33.28;13.02;;;;;;;18.99;27.64;100037.47;5054750;28;20056;-67
2024/03/17 07:12:42;;;;;;;37.97;12.00;;;;;;;20.05;26.99;100026.88;5056431;28;20158;-68
2024/03/17 07:15:08;;;;;;;33.35;12.48;;;;;;;20.60;26.43;100030.56;5045057;28;20490;-69
2024/03/17 07:17:35;;;;;;;33.10;12.02;;;;;;;21.15;25.98;100019.13;5054396;28;20036;-68
2024/03/17 07:20:01;;;;;;;38.65;11.75;;;;;;;21.20;24.99;100029.47;5037720;28;20132;-70
2024/03/17 07:22:30;;;;;;;32.50;12.43;;;;;;;20.91;24.73;100014.13;5049589;28;20068;-68
2024/03/17 07:25:01;;;;;;;29.80;12.45;;;;;;;19.99;25.17;99991.03;5050790;28;20106;-68
2024/03/17 07:27:32;;;;;;;41.17;13.20;;;;;;;19.52;25.38;100037.03;5046867;28;20046;-69
2024/03/17 07:30:02;;;;;;;31.13;13.33;;;;;;;18.66;25.36;100030.78;5038406;28;20044;-67
2024/03/17 07:32:29;;;;;;;43.38;12.85;;;;;;;17.98;26.03;100034.19;5032469;28;20032;-70
2024/03/17 07:34:55;;;;;;;38.72;12.48;;;;;;;17.18;26.70;100043.00;5054174;28;20189;-67
2024/03/17 07:37:21;;;;;;;30.88;12.70;;;;;;;17.00;27.03;100039.19;5045651;28;20097;-69
2024/03/17 07:39:49;;;;;;;38.72;12.63;;;;;;;16.66;27.93;100040.22;5080244;28;20055;-65
2024/03/17 07:42:15;;;;;;;36.22;12.10;;;;;;;16.41;27.95;100026.03;5074898;28;20043;-68
2024/03/17 07:44:44;;;;;;;35.33;13.15;;;;;;;16.45;28.39;100041.69;5059270;28;20047;-69
2024/03/17 07:47:10;;;;;;;40.38;12.95;;;;;;;16.50;28.63;100026.66;5073989;28;20066;-69
2024/03/17 07:49:36;;;;;;;46.70;14.15;;;;;;;16.69;28.55;100016.44;5091697;28;20077;-70
2024/03/17 07:52:02;;;;;;;33.63;11.57;;;;;;;16.99;28.56;100032.19;5078321;28;20139;-67
2024/03/17 07:54:28;;;;;;;32.60;11.85;;;;;;;16.72;28.04;100013.72;5071909;28;20131;-68
2024/03/17 07:56:55;;;;;;;34.13;12.45;;;;;;;17.23;28.72;100027.91;5073766;28;20108;-67
2024/03/17 07:59:21;;;;;;;39.03;12.15;;;;;;;18.42;27.90;100027.34;5076587;28;20480;-69
2024/03/17 08:01:47;;;;;;;48.67;12.48;;;;;;;18.44;26.05;100028.09;5064922;28;20068;-65
2024/03/17 08:04:13;;;;;;;42.25;11.55;;;;;;;17.40;26.89;100016.00;5074382;28;20070;-69
2024/03/17 08:06:40;;;;;;;41.95;11.70;;;;;;;17.01;28.20;100012.00;5091849;28;20036;-69
2024/03/17 08:09:10;;;;;;;44.78;11.13;;;;;;;17.08;28.84;100013.53;5071195;28;20452;-68
2024/03/17 08:11:36;;;;;;;48.67;12.43;;;;;;;17.36;28.47;100012.59;5090920;28;20151;-68
2024/03/17 08:14:03;;;;;;;47.22;11.63;;;;;;;18.00;28.36;100000.75;5058927;28;20035;-67
2024/03/17 08:16:29;;;;;;;42.58;10.82;;;;;;;17.91;27.41;99990.53;5048731;28;20509;-69
2024/03/17 08:18:56;;;;;;;37.13;10.55;;;;;;;18.95;27.90;99997.19;5072638;28;20032;-68
2024/03/17 08:21:22;;;;;;;42.28;10.90;;;;;;;19.93;27.29;99998.38;5044412;28;20211;-65
2024/03/17 08:23:48;;;;;;;46.20;10.63;;;;;;;20.09;26.58;99996.75;5090719;28;20036;-66
2024/03/17 08:26:15;;;;;;;40.35;11.02;;;;;;;19.72;26.31;100009.78;5057553;28;20040;-66
2024/03/17 08:28:41;;;;;;;50.88;10.98;;;;;;;18.77;26.07;99972.38;5071302;28;20158;-67
2024/03/17 08:31:07;;;;;;;46.30;9.70;;;;;;;18.31;26.85;99996.13;5076361;28;20064;-64
2024/03/17 08:33:33;;;;;;;48.45;10.10;;;;;;;18.06;27.13;100008.44;5077398;28;20036;-66
2024/03/17 08:36:09;;;;;;;45.67;10.52;;;;;;;17.90;27.46;99983.56;5077129;28;20052;-68
2024/03/17 08:38:37;;;;;;;54.20;10.50;;;;;;;17.10;27.31;99997.69;5075840;28;20131;-68
2024/03/17 08:41:05;;;;;;;48.58;10.60;;;;;;;17.23;28.80;100003.41;5076685;28;20054;-65
2024/03/17 08:43:35;;;;;;;45.55;9.52;;;;;;;17.11;27.99;99996.78;5079975;28;20082;-67
2024/03/17 08:46:06;;;;;;;45.28;10.45;;;;;;;17.04;28.84;99979.47;5083113;28;20603;-65
2024/03/17 08:48:35;;;;;;;52.07;9.87;;;;;;;17.30;28.34;99989.16;5068632;28;20035;-66
2024/03/17 08:51:03;;;;;;;41.38;9.55;;;;;;;17.22;28.44;99976.22;5054291;28;20297;-67
2024/03/17 08:53:30;;;;;;;52.70;10.65;;;;;;;16.97;27.87;99991.97;5072066;28;20190;-71
2024/03/17 08:55:57;;;;;;;56.17;10.15;;;;;;;16.61;28.48;99997.44;5071695;28;20058;-71
2024/03/17 08:58:24;;;;;;;48.20;9.55;;;;;;;16.10;28.91;99942.06;5066049;28;20048;-68
2024/03/17 09:00:51;;;;;;;46.75;9.38;;;;;;;16.90;29.51;99995.66;5097233;28;20489;-62
2024/03/17 09:03:17;;;;;;;45.33;9.93;;;;;;;17.89;28.73;99989.72;5079748;28;20046;-71
2024/03/17 09:05:45;;;;;;;52.03;9.98;;;;;;;18.51;29.01;99988.31;5078804;28;20207;-62
2024/03/17 09:08:23;;;;;;;51.85;10.32;;;;;;;20.14;27.60;99984.19;5079527;28;20047;-68
2024/03/17 09:10:52;;;;;;;55.15;10.63;;;;;;;22.19;28.10;99968.78;5067129;28;20044;-70
2024/03/17 09:13:26;;;;;;;47.78;9.35;;;;;;;24.10;26.12;99963.06;5080392;28;20046;-72
2024/03/17 09:16:01;;;;;;;50.13;10.43;;;;;;;25.66;25.06;99961.81;5078473;28;20043;-67
2024/03/17 09:18:30;;;;;;;46.25;10.20;;;;;;;26.40;23.16;99974.41;5095853;28;20047;-67
2024/03/17 09:21:05;;;;;;;56.40;10.77;;;;;;;26.08;23.01;99974.88;5079004;28;20046;-69
2024/03/17 09:23:34;;;;;;;60.97;10.63;;;;;;;26.88;23.20;99950.44;5082926;28;20047;-67
2024/03/17 09:26:05;;;;;;;48.47;10.27;;;;;;;26.58;20.53;99969.56;5094082;28;20126;-64
2024/03/17 09:28:32;;;;;;;45.50;10.70;;;;;;;25.62;22.97;99962.97;5081208;28;20079;-67
2024/03/17 09:30:58;;;;;;;46.60;10.38;;;;;;;25.95;21.96;99964.22;5097006;28;20031;-65
2024/03/17 09:33:26;;;;;;;50.15;10.23;;;;;;;26.01;21.74;99974.47;5067544;28;20113;-65
2024/03/17 09:35:58;;;;;;;54.60;11.02;;;;;;;26.20;21.32;99963.38;5062378;28;20074;-66
2024/03/17 09:38:24;;;;;;;52.78;11.15;;;;;;;25.67;21.32;99936.88;5084574;28;20051;-67
2024/03/17 09:40:52;;;;;;;58.85;11.18;;;;;;;25.95;21.68;99965.09;5086678;28;20040;-68
2024/03/17 09:43:20;;;;;;;49.95;10.65;;;;;;;26.70;22.55;99949.94;5080528;28;20042;-66
2024/03/17 09:45:47;;;;;;;53.95;12.15;;;;;;;26.88;20.94;99934.41;5096951;28;20297;-67
2024/03/17 09:48:17;;;;;;;55.30;10.65;;;;;;;26.21;21.10;99970.41;5077088;28;20035;-68
2024/03/17 09:50:53;;;;;;;40.50;10.07;;;;;;;24.70;21.36;99920.28;5062754;28;20045;-69
2024/03/17 09:53:30;;;;;;;48.03;10.90;;;;;;;23.94;21.77;99949.00;5075756;28;20151;-69
2024/03/17 09:56:20;;;;;;;46.75;11.23;;;;;;;23.62;22.71;99958.03;5047737;28;20043;-68
2024/03/17 09:58:48;;;;;;;48.65;9.82;;;;;;;23.38;22.94;99920.56;5061352;28;20039;-67
2024/03/17 10:01:15;;;;;;;34.05;9.57;;;;;;;23.35;22.57;99944.63;5075708;28;20039;-66
2024/03/17 10:03:42;;;;;;;44.00;9.30;;;;;;;24.04;23.05;99937.75;5075027;28;20104;-67
2024/03/17 10:06:12;;;;;;;47.25;10.93;;;;;;;23.76;21.99;99950.06;5080945;28;20039;-67
2024/03/17 10:08:50;;;;;;;49.35;10.77;;;;;;;22.66;23.17;99960.94;5080970;28;20036;-65
2024/03/17 10:11:19;;;;;;;44.33;9.98;;;;;;;22.13;23.03;99961.19;5076493;28;20425;-67
2024/03/17 10:13:46;;;;;;;48.72;10.18;;;;;;;22.04;23.66;99956.38;5056044;28;20403;-65
2024/03/17 10:16:25;;;;;;;49.00;10.75;;;;;;;21.07;23.10;99947.22;5077426;28;20047;-65
2024/03/17 10:19:13;;;;;;;43.85;9.55;;;;;;;20.78;24.10;99928.38;5063635;28;20032;-65
2024/03/17 10:21:47;;;;;;;36.00;9.77;;;;;;;20.98;24.99;99935.31;5078574;28;20043;-64
2024/03/17 10:24:20;;;;;;;42.70;9.63;;;;;;;20.64;24.15;99928.16;5069854;28;20067;-67
2024/03/17 10:26:50;;;;;;;43.35;9.25;;;;;;;20.31;24.92;99951.69;5091013;28;20074;-67
2024/03/17 10:29:32;;;;;;;45.45;9.38;;;;;;;19.81;25.24;99931.94;5066792;27;20509;-65
2024/03/17 10:32:12;;;;;;;48.72;9.45;;;;;;;19.00;25.66;99933.72;5063931;28;20275;-65
2024/03/17 10:34:39;;;;;;;42.92;9.00;;;;;;;18.65;26.36;99947.38;5063700;28;20422;-65
2024/03/17 10:37:10;;;;;;;45.78;8.18;;;;;;;17.71;26.26;99943.88;5079154;28;20048;-67
2024/03/17 10:39:38;;;;;;;40.42;8.98;;;;;;;16.95;27.37;99904.38;5075511;28;20044;-64
2024/03/17 10:42:06;;;;;;;35.25;7.13;;;;;;;16.48;28.11;99937.41;5061114;28;20209;-65
2024/03/17 10:44:34;;;;;;;37.25;8.95;;;;;;;16.02;28.73;99913.41;5091212;28;20101;-67
2024/03/17 10:47:01;;;;;;;31.48;7.22;;;;;;;15.88;28.98;99931.34;5062082;28;20039;-65
2024/03/17 10:49:32;;;;;;;39.63;7.35;;;;;;;15.97;29.58;99931.06;5072727;28;20136;-67
2024/03/17 10:52:09;;;;;;;36.75;7.75;;;;;;;15.98;29.36;99935.41;5063216;28;20040;-64
2024/03/17 10:54:35;;;;;;;33.05;8.13;;;;;;;15.80;29.84;99915.75;5054903;28;20058;-66
2024/03/17 10:57:20;;;;;;;45.05;7.47;;;;;;;15.86;29.51;99939.25;5074800;28;20055;-66
2024/03/17 10:59:48;;;;;;;24.17;7.95;;;;;;;15.25;29.87;99926.88;5075377;28;20485;-69
2024/03/17 11:02:24;;;;;;;39.92;8.48;;;;;;;14.61;30.13;99919.69;5075005;28;20088;-63
2024/03/17 11:04:53;;;;;;;46.70;7.97;;;;;;;14.69;30.54;99933.47;5075828;28;20043;-65
2024/03/17 11:07:20;;;;;;;41.72;7.70;;;;;;;14.39;30.83;99935.03;5064571;28;20038;-63
2024/03/17 11:09:48;;;;;;;37.60;8.68;;;;;;;13.89;31.29;99909.94;5078290;28;20071;-63
2024/03/17 11:12:48;;;;;;;40.22;8.27;;;;;;;13.79;32.22;99935.41;5072916;28;20040;-64
2024/03/17 11:15:24;;;;;;;32.83;7.22;;;;;;;13.50;32.39;99933.34;5063788;28;20158;-65
2024/03/17 11:17:53;;;;;;;42.63;7.80;;;;;;;13.07;32.32;99921.91;5076489;28;20027;-65
2024/03/17 11:20:29;;;;;;;40.53;7.93;;;;;;;12.90;33.23;99933.50;5085867;28;20065;-69
2024/03/17 11:23:00;;;;;;;33.78;7.70;;;;;;;12.58;32.90;99941.84;5078211;28;20130;-64